createdAt,value
2023-03-24T00:00:00.230Z,71.30
2023-03-24T00:03:48.903Z,71.29
2023-03-24T00:07:16.362Z,71.29
2023-03-24T00:10:49.970Z,71.37
2023-03-24T00:14:14.842Z,71.22
2023-03-24T00:17:41.499Z,71.00
2023-03-24T00:21:11.874Z,70.91
2023-03-24T00:24:39.027Z,70.97
2023-03-24T00:28:07.935Z,70.84
2023-03-24T00:31:40.553Z,70.65
2023-03-24T00:35:09.239Z,70.55
2023-03-24T00:38:36.513Z,70.46
2023-03-24T00:42:04.929Z,70.68
2023-03-24T00:45:34.927Z,70.64
2023-03-24T00:49:06.294Z,70.72
2023-03-24T00:52:34.429Z,70.86
2023-03-24T00:56:02.202Z,70.75
2023-03-24T00:59:29.868Z,70.83
2023-03-24T01:02:58.617Z,71.05
2023-03-24T01:06:25.433Z,70.91
2023-03-24T01:09:57.704Z,71.02
2023-03-24T01:13:26.216Z,70.93
2023-03-24T01:16:53.512Z,70.86
2023-03-24T01:20:20.765Z,70.74
2023-03-24T01:23:47.934Z,70.55
2023-03-24T01:27:14.710Z,70.64
2023-03-24T01:30:42.952Z,70.61
2023-03-24T01:34:09.789Z,70.74
2023-03-24T01:37:36.448Z,70.98
2023-03-24T01:41:03.091Z,70.74
2023-03-24T01:44:34.948Z,71.08
2023-03-24T01:48:02.050Z,70.91
2023-03-24T01:51:35.704Z,71.01
2023-03-24T01:55:08.233Z,71.29
2023-03-24T01:58:37.210Z,71.07
2023-03-24T02:02:28.893Z,71.32
2023-03-24T02:05:58.958Z,71.12
2023-03-24T02:09:25.595Z,71.37
2023-03-24T02:12:53.302Z,71.22
2023-03-24T02:16:34.894Z,71.50
2023-03-24T02:20:37.302Z,71.45
2023-03-24T02:24:37.013Z,71.44
2023-03-24T02:28:20.896Z,71.42
2023-03-24T02:32:11.065Z,71.36
2023-03-24T02:36:06.373Z,71.48
2023-03-24T02:39:53.274Z,71.57
2023-03-24T02:43:34.557Z,71.48
2023-03-24T02:47:06.820Z,71.53
2023-03-24T02:50:43.235Z,71.39
2023-03-24T02:54:15.489Z,71.73
2023-03-24T02:57:45.361Z,71.75
2023-03-24T03:01:20.864Z,71.96
2023-03-24T03:05:20.165Z,71.95
2023-03-24T03:08:49.341Z,72.08
2023-03-24T03:12:20.066Z,72.28
2023-03-24T03:15:51.380Z,72.20
2023-03-24T03:19:22.231Z,72.20
2023-03-24T03:22:52.641Z,72.45
2023-03-24T03:26:24.380Z,72.26
2023-03-24T03:29:55.285Z,72.30
2023-03-24T03:33:27.368Z,72.15
2023-03-24T03:37:01.145Z,72.38
2023-03-24T03:40:32.887Z,72.20
2023-03-24T03:44:05.664Z,72.02
2023-03-24T03:47:33.804Z,72.14
2023-03-24T03:51:12.843Z,72.14
2023-03-24T03:54:45.137Z,72.19
2023-03-24T03:58:12.660Z,72.23
2023-03-24T04:01:44.688Z,72.17
2023-03-24T04:05:31.949Z,72.55
2023-03-24T04:09:18.088Z,72.70
2023-03-24T04:13:08.409Z,72.68
2023-03-24T04:17:06.274Z,72.74
2023-03-24T04:20:48.245Z,72.69
2023-03-24T04:24:27.628Z,72.63
2023-03-24T04:28:02.433Z,73.01
2023-03-24T04:31:34.486Z,72.97
2023-03-24T04:35:07.310Z,72.75
2023-03-24T04:38:57.580Z,72.99
2023-03-24T04:42:38.722Z,73.05
2023-03-24T04:46:09.118Z,73.01
2023-03-24T04:50:01.385Z,73.01
2023-03-24T04:53:30.200Z,73.06
2023-03-24T04:56:59.366Z,73.02
2023-03-24T05:00:33.820Z,72.75
2023-03-24T05:04:01.411Z,72.95
2023-03-24T05:07:28.748Z,72.93
2023-03-24T05:10:58.969Z,72.84
2023-03-24T05:14:26.697Z,72.91
2023-03-24T05:17:53.986Z,73.16
2023-03-24T05:21:23.471Z,72.91
2023-03-24T05:24:50.472Z,73.03
2023-03-24T05:28:17.362Z,73.21
2023-03-24T05:31:45.398Z,73.32
2023-03-24T05:35:21.026Z,73.28
2023-03-24T05:38:49.236Z,73.32
2023-03-24T05:42:17.314Z,73.47
2023-03-24T05:45:45.455Z,73.21
2023-03-24T05:49:18.940Z,73.53
2023-03-24T05:52:48.678Z,73.46
2023-03-24T05:56:31.611Z,73.51
2023-03-24T06:00:01.190Z,73.52
2023-03-24T06:03:51.563Z,73.75
2023-03-24T06:07:19.324Z,73.56
2023-03-24T06:10:46.934Z,73.54
2023-03-24T06:14:13.895Z,73.39
2023-03-24T06:17:55.011Z,73.43
2023-03-24T06:21:32.563Z,73.40
2023-03-24T06:25:05.148Z,73.64
2023-03-24T06:28:34.712Z,73.84
2023-03-24T06:32:05.786Z,73.77
2023-03-24T06:35:38.883Z,73.97
2023-03-24T06:39:09.666Z,73.99
2023-03-24T06:42:36.909Z,74.00
2023-03-24T06:46:03.856Z,73.92
2023-03-24T06:49:30.471Z,73.93
2023-03-24T06:52:57.052Z,73.93
2023-03-24T06:56:25.113Z,74.16
2023-03-24T06:59:55.827Z,74.04
2023-03-24T07:03:25.329Z,74.12
2023-03-24T07:07:57.082Z,74.06
2023-03-24T07:11:26.132Z,74.14
2023-03-24T07:14:56.082Z,74.11
2023-03-24T07:18:23.459Z,74.11
2023-03-24T07:21:56.609Z,74.21
2023-03-24T07:25:34.587Z,74.14
2023-03-24T07:29:24.419Z,74.00
2023-03-24T07:33:15.704Z,74.10
2023-03-24T07:36:44.794Z,74.03
2023-03-24T07:40:22.881Z,74.04
2023-03-24T07:43:50.297Z,73.96
2023-03-24T07:47:24.989Z,74.19
2023-03-24T07:50:53.630Z,74.14
2023-03-24T07:54:49.451Z,74.36
2023-03-24T07:58:34.056Z,74.22
2023-03-24T08:02:22.471Z,74.37
2023-03-24T08:06:22.026Z,74.41
2023-03-24T08:09:55.955Z,74.55
2023-03-24T08:13:22.800Z,74.58
2023-03-24T08:16:50.784Z,74.72
2023-03-24T08:20:19.501Z,74.62
2023-03-24T08:23:46.102Z,74.75
2023-03-24T08:27:13.115Z,74.70
2023-03-24T08:30:46.483Z,74.81
2023-03-24T08:34:14.449Z,74.91
2023-03-24T08:37:42.615Z,75.03
2023-03-24T08:41:10.094Z,75.07
2023-03-24T08:44:37.717Z,74.81
2023-03-24T08:48:07.273Z,75.12
2023-03-24T08:51:35.002Z,75.05
2023-03-24T08:55:02.470Z,74.84
2023-03-24T08:58:32.800Z,74.81
2023-03-24T09:01:59.257Z,75.05
2023-03-24T09:05:37.067Z,75.04
2023-03-24T09:09:10.208Z,74.92
2023-03-24T09:12:37.176Z,74.85
2023-03-24T09:16:05.107Z,74.57
2023-03-24T09:19:34.358Z,74.84
2023-03-24T09:23:01.728Z,74.87
2023-03-24T09:26:28.622Z,74.68
2023-03-24T09:29:55.740Z,74.49
2023-03-24T09:33:25.081Z,74.41
2023-03-24T09:36:52.319Z,74.08
2023-03-24T09:40:23.294Z,74.18
2023-03-24T09:43:58.429Z,74.21
2023-03-24T09:47:31.864Z,73.90
2023-03-24T09:51:02.536Z,73.69
2023-03-24T09:54:38.428Z,73.57
2023-03-24T09:58:09.433Z,73.48
2023-03-24T10:01:40.324Z,73.49
2023-03-24T10:05:16.762Z,73.15
2023-03-24T10:08:50.303Z,73.07
2023-03-24T10:12:31.418Z,72.99
2023-03-24T10:16:08.019Z,73.08
2023-03-24T10:19:45.585Z,73.06
2023-03-24T10:23:26.400Z,72.99
2023-03-24T10:27:03.779Z,72.43
2023-03-24T10:30:34.598Z,72.06
2023-03-24T10:34:02.487Z,71.94
2023-03-24T10:37:32.291Z,71.88
2023-03-24T10:41:00.054Z,71.74
2023-03-24T10:44:27.274Z,71.67
2023-03-24T10:47:55.080Z,71.40
2023-03-24T10:51:24.539Z,71.17
2023-03-24T10:54:59.551Z,70.95
2023-03-24T10:58:37.891Z,70.95
2023-03-24T11:02:17.761Z,70.84
2023-03-24T11:05:45.097Z,70.81
2023-03-24T11:09:18.931Z,70.31
2023-03-24T11:13:02.649Z,70.08
2023-03-24T11:16:37.216Z,69.69
2023-03-24T11:20:06.420Z,69.58
2023-03-24T11:23:36.115Z,69.55
2023-03-24T11:27:04.308Z,69.57
2023-03-24T11:30:35.892Z,69.19
2023-03-24T11:34:09.261Z,69.05
2023-03-24T11:37:35.596Z,68.91
2023-03-24T11:41:06.137Z,68.88
2023-03-24T11:44:43.185Z,68.82
2023-03-24T11:48:21.201Z,68.70
2023-03-24T11:51:53.158Z,68.45
2023-03-24T11:55:25.761Z,68.29
2023-03-24T11:58:56.962Z,68.19
2023-03-24T12:02:39.343Z,67.97
2023-03-24T12:06:15.720Z,67.92
2023-03-24T12:09:48.660Z,67.99
2023-03-24T12:13:31.803Z,68.05
2023-03-24T12:17:06.718Z,68.23
2023-03-24T12:20:39.126Z,68.21
2023-03-24T12:24:17.611Z,68.43
2023-03-24T12:27:54.290Z,68.50
2023-03-24T12:31:42.063Z,68.62
2023-03-24T12:35:38.951Z,68.51
2023-03-24T12:39:13.161Z,68.73
2023-03-24T12:42:40.617Z,68.77
2023-03-24T12:46:15.996Z,69.04
2023-03-24T12:50:05.899Z,69.24
2023-03-24T12:53:43.633Z,69.30
2023-03-24T12:57:15.735Z,69.44
2023-03-24T13:00:47.756Z,69.40
2023-03-24T13:04:21.249Z,69.56
2023-03-24T13:07:54.349Z,69.71
2023-03-24T13:11:33.250Z,69.84
2023-03-24T13:15:15.209Z,69.85
2023-03-24T13:18:45.381Z,69.88
2023-03-24T13:22:18.127Z,69.92
2023-03-24T13:25:52.945Z,69.89
2023-03-24T13:29:55.845Z,69.82
2023-03-24T13:33:26.799Z,69.52
2023-03-24T13:36:57.649Z,69.55
2023-03-24T13:40:28.073Z,69.50
2023-03-24T13:44:02.343Z,69.44
2023-03-24T13:47:32.052Z,69.41
2023-03-24T13:51:01.948Z,69.34
2023-03-24T13:54:30.993Z,69.37
2023-03-24T13:58:02.000Z,69.46
2023-03-24T14:01:41.100Z,69.36
2023-03-24T14:05:10.217Z,69.28
2023-03-24T14:08:56.083Z,69.22
2023-03-24T14:12:27.396Z,69.08
2023-03-24T14:15:56.725Z,69.02
2023-03-24T14:19:31.404Z,68.84
2023-03-24T14:22:58.606Z,68.85
2023-03-24T14:26:36.944Z,68.90
2023-03-24T14:30:13.679Z,68.77
2023-03-24T14:33:41.667Z,68.69
2023-03-24T14:37:11.367Z,68.56
2023-03-24T14:40:40.350Z,68.29
2023-03-24T14:44:10.491Z,68.17
2023-03-24T14:47:39.932Z,68.30
2023-03-24T14:51:18.286Z,68.12
2023-03-24T14:54:53.697Z,68.14
2023-03-24T14:58:28.271Z,68.06
2023-03-24T15:02:00.892Z,67.94
2023-03-24T15:05:32.230Z,67.76
2023-03-24T15:09:01.436Z,67.64
2023-03-24T15:12:28.531Z,67.72
2023-03-24T15:15:58.818Z,67.51
2023-03-24T15:19:28.991Z,67.59
2023-03-24T15:22:56.434Z,67.43
2023-03-24T15:26:24.704Z,67.51
2023-03-24T15:29:59.250Z,67.43
2023-03-24T15:33:31.280Z,67.30
2023-03-24T15:37:00.017Z,67.32
2023-03-24T15:40:39.316Z,67.26
2023-03-24T15:44:11.331Z,67.22
2023-03-24T15:47:43.287Z,67.26
2023-03-24T15:51:12.758Z,67.22
2023-03-24T15:54:43.126Z,67.24
2023-03-24T15:58:27.199Z,67.22
2023-03-24T16:01:54.555Z,67.08
2023-03-24T16:05:26.172Z,67.12
2023-03-24T16:08:52.782Z,67.16
2023-03-24T16:12:19.737Z,67.18
2023-03-24T16:15:49.867Z,67.09
2023-03-24T16:19:16.787Z,67.09
2023-03-24T16:22:43.891Z,67.09
2023-03-24T16:26:13.918Z,67.18
2023-03-24T16:29:40.899Z,67.08
2023-03-24T16:33:08.821Z,67.06
2023-03-24T16:36:36.439Z,67.11
2023-03-24T16:40:03.898Z,67.07
2023-03-24T16:43:33.570Z,66.95
2023-03-24T16:47:01.112Z,67.10
2023-03-24T16:50:33.695Z,67.04
2023-03-24T16:54:00.915Z,67.09
2023-03-24T16:57:28.049Z,67.11
2023-03-24T17:00:59.042Z,67.11
2023-03-24T17:04:27.695Z,67.27
2023-03-24T17:07:55.813Z,67.26
2023-03-24T17:11:30.599Z,67.27
2023-03-24T17:14:57.296Z,67.29
2023-03-24T17:18:25.075Z,66.93
2023-03-24T17:21:58.101Z,66.15
2023-03-24T17:25:29.480Z,65.60
2023-03-24T17:28:56.928Z,65.26
2023-03-24T17:32:29.925Z,65.34
2023-03-24T17:35:57.059Z,65.52
2023-03-24T17:39:24.948Z,65.55
2023-03-24T17:42:54.750Z,65.98
2023-03-24T17:46:22.566Z,66.15
2023-03-24T17:49:49.518Z,66.22
2023-03-24T17:53:17.783Z,66.44
2023-03-24T17:56:44.902Z,66.79
2023-03-24T18:00:15.162Z,66.75
2023-03-24T18:03:45.071Z,66.87
2023-03-24T18:07:12.213Z,67.12
2023-03-24T18:10:39.918Z,67.33
2023-03-24T18:14:09.412Z,67.51
2023-03-24T18:17:37.811Z,67.61
2023-03-24T18:21:05.169Z,67.69
2023-03-24T18:24:32.499Z,67.80
2023-03-24T18:27:59.089Z,67.78
2023-03-24T18:31:26.596Z,67.71
2023-03-24T18:34:55.290Z,68.12
2023-03-24T18:38:22.894Z,68.21
2023-03-24T18:41:53.655Z,68.29
2023-03-24T18:45:21.240Z,68.16
2023-03-24T18:48:49.246Z,68.31
2023-03-24T18:52:18.425Z,68.29
2023-03-24T18:55:51.992Z,68.59
2023-03-24T18:59:20.351Z,68.55
2023-03-24T19:02:49.246Z,68.66
2023-03-24T19:06:17.786Z,68.71
2023-03-24T19:09:46.223Z,68.78
2023-03-24T19:13:14.922Z,68.96
2023-03-24T19:16:42.032Z,68.92
2023-03-24T19:20:12.106Z,68.87
2023-03-24T19:23:41.989Z,69.07
2023-03-24T19:27:08.776Z,69.07
2023-03-24T19:30:38.824Z,69.30
2023-03-24T19:34:06.396Z,69.40
2023-03-24T19:37:34.649Z,69.49
2023-03-24T19:41:08.087Z,69.68
2023-03-24T19:44:35.043Z,69.74
2023-03-24T19:48:01.844Z,69.99
2023-03-24T19:51:29.934Z,70.00
2023-03-24T19:54:56.818Z,70.06
2023-03-24T19:58:25.400Z,69.90
2023-03-24T20:01:52.343Z,69.98
2023-03-24T20:05:19.634Z,70.05
2023-03-24T20:08:47.525Z,70.03
2023-03-24T20:12:14.278Z,69.98
2023-03-24T20:15:41.152Z,70.04
2023-03-24T20:19:08.221Z,70.00
2023-03-24T20:22:36.903Z,70.02
2023-03-24T20:26:04.348Z,70.01
2023-03-24T20:29:31.954Z,70.25
2023-03-24T20:32:59.901Z,70.22
2023-03-24T20:36:27.061Z,70.35
2023-03-24T20:39:55.289Z,70.27
2023-03-24T20:43:21.775Z,70.31
2023-03-24T20:46:49.244Z,70.31
2023-03-24T20:50:16.348Z,70.54
2023-03-24T20:53:45.121Z,70.48
2023-03-24T20:57:13.276Z,70.53
2023-03-24T21:00:42.232Z,70.53
2023-03-24T21:04:10.991Z,70.65
2023-03-24T21:07:44.098Z,70.49
2023-03-24T21:11:12.949Z,70.35
2023-03-24T21:14:41.650Z,70.40
2023-03-24T21:18:09.896Z,70.47
2023-03-24T21:21:38.429Z,70.43
2023-03-24T21:25:06.786Z,70.40
2023-03-24T21:28:34.328Z,70.55
2023-03-24T21:32:01.402Z,70.51
2023-03-24T21:35:29.004Z,70.61
2023-03-24T21:38:56.785Z,70.73
2023-03-24T21:42:30.977Z,70.72
2023-03-24T21:45:59.494Z,70.92
2023-03-24T21:49:30.487Z,70.92
2023-03-24T21:52:59.469Z,71.01
2023-03-24T21:56:33.127Z,71.01
2023-03-24T22:00:13.270Z,71.09
2023-03-24T22:03:40.866Z,70.95
2023-03-24T22:07:16.002Z,71.08
2023-03-24T22:10:46.385Z,71.07
2023-03-24T22:14:16.922Z,70.96
2023-03-24T22:17:45.423Z,71.08
2023-03-24T22:21:17.286Z,70.99
2023-03-24T22:24:44.911Z,71.37
2023-03-24T22:28:12.151Z,71.21
2023-03-24T22:31:43.908Z,71.33
2023-03-24T22:35:14.540Z,71.30
2023-03-24T22:38:53.632Z,71.25
2023-03-24T22:42:31.935Z,71.40
2023-03-24T22:46:20.351Z,71.51
2023-03-24T22:50:00.108Z,71.52
2023-03-24T22:53:28.232Z,71.46
2023-03-24T22:56:55.653Z,71.70
2023-03-24T23:00:31.065Z,71.45
2023-03-24T23:03:59.560Z,71.52
2023-03-24T23:07:33.682Z,71.59
2023-03-24T23:11:06.928Z,71.68
2023-03-24T23:14:34.769Z,71.90
2023-03-24T23:18:07.336Z,71.40
2023-03-24T23:21:35.626Z,71.78
2023-03-24T23:25:04.262Z,71.45
2023-03-24T23:28:32.513Z,71.61
2023-03-24T23:32:00.033Z,71.60
2023-03-24T23:35:26.980Z,71.67
2023-03-24T23:38:55.944Z,71.72
2023-03-24T23:42:25.582Z,71.85
2023-03-24T23:45:58.032Z,71.79
2023-03-24T23:49:25.098Z,71.69
2023-03-24T23:52:52.266Z,71.89
2023-03-24T23:56:22.244Z,71.92
2023-03-24T23:59:53.211Z,72.02
